Time;durP1;ratioP1;P1;durP2;ratioP2;P2;SDS_P1;SDS_P2;PMS_P1;PMS_P2;Temp;Humidity;BMP_temperature;BMP_pressure;BME280_temperature;BME280_humidity;BME280_pressure;Samples;Min_cycle;Max_cycle;Signal;HPM_P1;HPM_P2
2022/06/02 00:00:38;;;;;;;1.77;1.10;;;12.70;99.90;;;;;;5057703;28;20127;-82
2022/06/02 00:03:28;;;;;;;1.63;0.88;;;12.70;99.90;;;;;;5084765;28;20057;-83
2022/06/02 00:06:10;;;;;;;2.05;1.33;;;12.70;99.90;;;;;;5081136;28;20039;-82
2022/06/02 00:09:10;;;;;;;0.93;0.93;;;12.60;99.90;;;;;;5085078;28;20037;-82
2022/06/02 00:12:06;;;;;;;1.13;0.93;;;12.60;99.90;;;;;;5075078;28;20044;-81
2022/06/02 00:14:51;;;;;;;0.98;0.85;;;12.50;99.90;;;;;;5080100;28;20025;-83
2022/06/02 00:17:35;;;;;;;0.93;0.82;;;12.50;99.90;;;;;;5084060;28;20024;-82
2022/06/02 00:20:05;;;;;;;0.70;0.70;;;12.50;99.90;;;;;;5082551;28;20028;-84
2022/06/02 00:22:41;;;;;;;2.08;1.67;;;12.50;99.90;;;;;;5089930;28;20040;-84
2022/06/02 00:25:26;;;;;;;1.25;1.13;;;12.50;99.90;;;;;;5082390;28;20031;-83
2022/06/02 00:28:22;;;;;;;3.88;1.80;;;12.40;99.90;;;;;;5076191;28;20395;-83
2022/06/02 00:31:14;;;;;;;1.52;1.10;;;12.50;99.90;;;;;;5074204;28;20025;-83
2022/06/02 00:34:05;;;;;;;3.78;1.83;;;12.50;99.90;;;;;;5085756;28;20024;-83
2022/06/02 00:36:40;;;;;;;1.02;1.02;;;12.50;99.90;;;;;;5079716;28;20027;-83
2022/06/02 00:39:08;;;;;;;2.78;1.48;;;12.50;99.90;;;;;;5085794;28;20082;-83
2022/06/02 00:41:51;;;;;;;0.60;0.60;;;12.50;99.90;;;;;;5079822;28;20024;-82
2022/06/02 00:45:00;;;;;;;0.55;0.55;;;12.50;99.90;;;;;;5087138;28;20478;-83
2022/06/02 00:47:48;;;;;;;0.70;0.70;;;12.40;99.90;;;;;;5075470;28;20032;-84
2022/06/02 00:50:37;;;;;;;0.40;0.40;;;12.40;99.90;;;;;;5074907;28;20036;-83
2022/06/02 00:53:05;;;;;;;1.55;1.00;;;12.30;99.90;;;;;;5079905;28;20055;-83
2022/06/02 00:59:32;;;;;;;1.33;0.60;;;12.20;99.90;;;;;;5080540;28;20043;-82
2022/06/02 01:01:57;;;;;;;0.93;0.80;;;12.20;99.90;;;;;;5079317;28;20124;-83
2022/06/02 01:04:23;;;;;;;1.05;1.02;;;12.10;99.90;;;;;;5082197;28;20329;-84
2022/06/02 01:07:03;;;;;;;0.63;0.63;;;12.00;99.90;;;;;;5079274;28;20024;-84
2022/06/02 01:09:57;;;;;;;2.25;1.00;;;12.00;99.90;;;;;;5079614;28;20089;-84
2022/06/02 01:12:36;;;;;;;1.20;0.80;;;11.90;99.90;;;;;;5073680;28;20494;-83
2022/06/02 01:15:35;;;;;;;0.88;0.68;;;11.90;99.90;;;;;;5073842;28;20078;-83
2022/06/02 01:18:17;;;;;;;1.23;0.75;;;11.90;99.90;;;;;;5084605;28;20028;-83
2022/06/02 01:21:23;;;;;;;1.25;1.15;;;11.90;99.90;;;;;;5080792;28;20399;-83
2022/06/02 01:24:19;;;;;;;1.15;1.05;;;11.80;99.90;;;;;;5000220;28;20165;-83
2022/06/02 01:26:50;;;;;;;0.60;0.60;;;11.70;99.90;;;;;;5074554;28;20024;-83
2022/06/02 01:30:00;;;;;;;0.75;0.68;;;11.70;99.90;;;;;;5078516;28;20096;-84
2022/06/02 01:32:41;;;;;;;0.50;0.50;;;11.70;99.90;;;;;;5087455;28;20032;-83
2022/06/02 01:35:35;;;;;;;1.35;0.60;;;11.60;99.90;;;;;;5075019;28;20498;-84
2022/06/02 01:38:20;;;;;;;0.55;0.50;;;11.60;99.90;;;;;;5074282;28;20032;-83
2022/06/02 01:41:09;;;;;;;0.82;0.82;;;11.60;99.90;;;;;;5079492;28;20024;-83
2022/06/02 01:44:11;;;;;;;0.55;0.55;;;11.50;99.90;;;;;;5078039;28;20135;-83
2022/06/02 01:47:07;;;;;;;0.40;0.40;;;11.50;99.90;;;;;;5079324;28;20024;-83
2022/06/02 01:49:49;;;;;;;0.70;0.70;;;11.40;99.90;;;;;;5088061;28;20040;-82
2022/06/02 01:52:28;;;;;;;0.70;0.70;;;11.40;99.90;;;;;;5075483;28;20077;-83
2022/06/02 01:55:14;;;;;;;0.68;0.68;;;11.40;99.90;;;;;;5081492;28;20222;-83
2022/06/02 01:58:02;;;;;;;0.88;0.68;;;11.40;99.90;;;;;;5076252;28;20016;-84
2022/06/02 02:00:31;;;;;;;11.32;1.10;;;11.40;99.90;;;;;;5077959;28;20078;-85
2022/06/02 02:03:21;;;;;;;1.00;0.77;;;11.30;99.90;;;;;;5091777;28;20494;-83
2022/06/02 02:06:22;;;;;;;1.00;0.88;;;11.30;99.90;;;;;;5081891;28;20085;-84
2022/06/02 02:09:22;;;;;;;1.25;0.88;;;11.20;99.90;;;;;;4985731;28;20511;-83
2022/06/02 02:11:56;;;;;;;1.23;1.08;;;11.30;99.90;;;;;;5068250;28;20046;-82
2022/06/02 02:14:49;;;;;;;0.73;0.73;;;11.20;99.90;;;;;;5080274;28;20646;-83
2022/06/02 02:17:32;;;;;;;1.05;0.73;;;11.30;99.90;;;;;;5084457;28;20530;-83
2022/06/02 02:20:35;;;;;;;0.88;0.55;;;11.20;99.90;;;;;;5074461;28;20028;-83
2022/06/02 02:23:30;;;;;;;0.40;0.40;;;11.20;99.90;;;;;;5074686;28;20016;-83
2022/06/02 02:26:06;;;;;;;1.08;1.00;;;11.20;99.90;;;;;;5071106;28;20035;-82
2022/06/02 02:28:42;;;;;;;1.38;1.23;;;11.10;99.90;;;;;;5082322;28;20027;-84
2022/06/02 02:31:45;;;;;;;1.95;0.73;;;11.10;99.90;;;;;;5077800;28;20486;-83
2022/06/02 02:34:23;;;;;;;0.80;0.80;;;11.10;99.90;;;;;;5074540;28;20040;-83
2022/06/02 02:37:13;;;;;;;1.63;0.68;;;11.10;99.90;;;;;;5072433;28;20115;-83
2022/06/02 02:39:56;;;;;;;1.25;0.68;;;11.10;99.90;;;;;;5079688;28;20101;-83
2022/06/02 02:42:34;;;;;;;0.90;0.60;;;11.00;99.90;;;;;;5080884;28;20685;-82
2022/06/02 02:45:21;;;;;;;0.88;0.57;;;11.00;99.90;;;;;;5079790;28;20647;-82
2022/06/02 02:48:19;;;;;;;0.65;0.65;;;11.00;99.90;;;;;;5074232;28;20017;-84
2022/06/02 02:50:53;;;;;;;0.55;0.55;;;10.90;99.90;;;;;;5073927;28;20032;-85
2022/06/02 02:53:28;;;;;;;1.25;0.85;;;10.90;99.90;;;;;;5075869;28;20020;-83
2022/06/02 02:55:59;;;;;;;0.45;0.45;;;10.90;99.90;;;;;;5078821;28;20020;-83
2022/06/02 02:58:43;;;;;;;;;;;10.80;99.90;;;;;;5074153;28;20820;-85
2022/06/02 03:01:17;;;;;;;0.55;0.55;;;10.80;99.90;;;;;;5080774;28;19972;-82
2022/06/02 03:04:19;;;;;;;0.55;0.40;;;10.80;99.90;;;;;;5072747;28;20082;-83
2022/06/02 03:06:47;;;;;;;2.03;1.42;;;10.80;99.90;;;;;;5074907;28;20047;-84
2022/06/02 03:09:20;;;;;;;0.75;0.75;;;10.80;99.90;;;;;;5080097;28;20039;-83
2022/06/02 03:11:52;;;;;;;1.60;0.90;;;10.80;99.90;;;;;;5081885;28;20048;-82
2022/06/02 03:14:42;;;;;;;0.68;0.68;;;10.80;99.90;;;;;;5077937;28;20043;-84
2022/06/02 03:17:28;;;;;;;0.77;0.77;;;10.80;99.90;;;;;;5076400;28;20036;-83
2022/06/02 03:20:29;;;;;;;0.82;0.68;;;10.80;99.90;;;;;;5075266;28;20039;-84
2022/06/02 03:23:15;;;;;;;0.63;0.63;;;10.70;99.90;;;;;;5078509;28;20040;-83
2022/06/02 03:25:42;;;;;;;0.80;0.43;;;10.70;99.90;;;;;;5072328;28;21922;-82
2022/06/02 03:28:31;;;;;;;0.77;0.75;;;10.70;99.90;;;;;;5079059;28;20076;-82
2022/06/02 03:31:07;;;;;;;0.52;0.22;;;10.70;99.90;;;;;;5072581;28;20029;-83
2022/06/02 03:33:55;;;;;;;0.35;0.35;;;10.70;99.90;;;;;;5081995;28;20051;-86
2022/06/02 03:36:42;;;;;;;1.17;0.70;;;10.70;99.90;;;;;;5076062;28;20973;-83
2022/06/02 03:39:15;;;;;;;0.63;0.63;;;10.80;99.90;;;;;;5078912;28;20538;-83
2022/06/02 03:41:52;;;;;;;0.55;0.52;;;10.80;99.90;;;;;;5071798;28;20063;-84
2022/06/02 03:44:26;;;;;;;0.73;0.73;;;10.80;99.90;;;;;;5078589;28;20028;-83
2022/06/02 03:47:14;;;;;;;0.30;0.30;;;10.90;99.90;;;;;;5075285;28;20028;-83
2022/06/02 03:49:39;;;;;;;0.80;0.60;;;10.90;99.90;;;;;;5072251;28;20032;-81
2022/06/02 03:52:13;;;;;;;1.27;1.02;;;11.00;99.90;;;;;;5078135;28;20671;-87
2022/06/02 03:54:54;;;;;;;0.93;0.90;;;11.10;99.90;;;;;;5077493;28;20052;-82
2022/06/02 03:57:42;;;;;;;1.98;1.13;;;11.00;99.90;;;;;;5077568;28;20027;-85
2022/06/02 04:00:27;;;;;;;1.00;0.70;;;11.10;99.90;;;;;;5073636;28;20040;-83
2022/06/02 04:03:04;;;;;;;1.15;0.95;;;11.10;99.90;;;;;;5082088;28;20107;-82
2022/06/02 04:06:06;;;;;;;0.95;0.63;;;11.20;99.90;;;;;;5081315;28;20038;-83
2022/06/02 04:08:57;;;;;;;0.73;0.50;;;11.20;99.90;;;;;;5076170;28;20028;-83
2022/06/02 04:14:38;;;;;;;1.05;0.98;;;11.20;99.90;;;;;;5075218;28;20034;-88
2022/06/02 04:17:20;;;;;;;0.82;0.68;;;11.20;99.90;;;;;;5083880;28;20035;-83
2022/06/02 04:23:25;;;;;;;0.45;0.45;;;11.30;99.90;;;;;;5085940;28;20039;-85
2022/06/02 04:26:22;;;;;;;0.82;0.52;;;11.40;99.90;;;;;;5080912;28;20023;-82
2022/06/02 04:28:57;;;;;;;0.73;0.70;;;11.40;99.90;;;;;;5071241;28;20572;-84
2022/06/02 04:31:54;;;;;;;2.53;0.80;;;11.40;99.90;;;;;;5088792;28;20032;-85
2022/06/02 04:34:26;;;;;;;0.63;0.63;;;11.40;99.90;;;;;;5079299;28;20048;-82
2022/06/02 04:37:22;;;;;;;1.73;1.13;;;11.40;99.90;;;;;;5080860;28;20016;-82
2022/06/02 04:40:10;;;;;;;0.63;0.63;;;11.50;99.90;;;;;;5076300;28;20120;-84
2022/06/02 04:42:48;;;;;;;2.05;1.30;;;11.40;99.90;;;;;;5076160;28;20058;-83
2022/06/02 04:45:28;;;;;;;1.23;0.77;;;11.40;99.90;;;;;;5080146;28;20063;-83
2022/06/02 04:48:12;;;;;;;1.27;1.15;;;11.50;99.90;;;;;;5079737;28;20036;-83
2022/06/02 04:51:03;;;;;;;0.73;0.55;;;11.60;99.90;;;;;;5080845;28;20043;-84
2022/06/02 04:53:56;;;;;;;1.35;0.93;;;11.70;99.90;;;;;;5077655;28;20048;-83
2022/06/02 04:56:33;;;;;;;0.68;0.68;;;11.70;99.90;;;;;;5077585;28;20039;-82
2022/06/02 04:59:14;;;;;;;1.70;0.77;;;11.70;99.90;;;;;;5084168;28;20020;-85
2022/06/02 05:02:23;;;;;;;1.90;1.10;;;11.70;99.90;;;;;;5082752;28;20054;-83
2022/06/02 05:05:03;;;;;;;1.17;1.08;;;11.80;99.90;;;;;;5084927;28;20078;-83
2022/06/02 05:07:55;;;;;;;0.95;0.95;;;11.90;99.90;;;;;;5074061;28;20024;-85
2022/06/02 05:10:52;;;;;;;1.40;1.30;;;11.80;99.90;;;;;;5095106;28;20096;-84
2022/06/02 05:13:46;;;;;;;2.78;0.90;;;11.70;99.90;;;;;;5078408;28;20088;-83
2022/06/02 05:16:45;;;;;;;1.90;0.93;;;11.80;99.90;;;;;;5081265;28;20420;-84
2022/06/02 05:19:34;;;;;;;1.77;0.73;;;12.00;99.90;;;;;;5078105;28;20020;-84
2022/06/02 05:22:31;;;;;;;0.80;0.80;;;12.10;99.90;;;;;;5084225;28;20455;-81
2022/06/02 05:25:34;;;;;;;1.13;0.95;;;12.10;99.90;;;;;;5076982;28;20052;-83
2022/06/02 05:28:32;;;;;;;0.85;0.85;;;12.10;99.90;;;;;;5057836;28;20482;-82
2022/06/02 05:31:44;;;;;;;1.60;0.95;;;12.30;99.90;;;;;;5077483;28;20032;-81
2022/06/02 05:34:34;;;;;;;1.58;0.75;;;12.20;99.90;;;;;;5071963;28;20035;-86
2022/06/02 05:37:23;;;;;;;1.80;1.33;;;12.10;99.90;;;;;;5077381;28;20107;-83
2022/06/02 05:39:58;;;;;;;8.68;1.15;;;12.00;99.90;;;;;;5077856;28;20021;-82
2022/06/02 05:42:30;;;;;;;1.08;0.90;;;11.90;99.90;;;;;;5074625;28;20032;-85
2022/06/02 05:45:14;;;;;;;1.58;1.05;;;11.90;99.90;;;;;;5082963;28;20378;-82
2022/06/02 05:48:04;;;;;;;1.13;1.05;;;11.90;99.90;;;;;;5076496;28;20495;-84
2022/06/02 05:50:36;;;;;;;2.28;0.82;;;11.90;99.90;;;;;;5072477;28;20047;-83
2022/06/02 05:53:38;;;;;;;3.80;1.60;;;12.00;99.90;;;;;;5078168;28;20063;-84
2022/06/02 05:56:39;;;;;;;1.83;0.98;;;11.90;99.90;;;;;;5078008;28;20035;-83
2022/06/02 05:59:45;;;;;;;3.23;1.17;;;11.90;99.90;;;;;;5053483;28;20406;-77
2022/06/02 06:02:47;;;;;;;1.17;1.08;;;12.00;99.90;;;;;;5074169;28;20024;-79
2022/06/02 06:05:26;;;;;;;6.75;0.90;;;12.20;99.90;;;;;;5077400;28;20462;-77
2022/06/02 06:08:14;;;;;;;1.20;1.08;;;12.30;99.90;;;;;;5071181;28;20088;-76
2022/06/02 06:11:01;;;;;;;2.15;1.15;;;12.10;99.90;;;;;;5079753;28;20056;-82
2022/06/02 06:13:54;;;;;;;1.15;1.05;;;12.20;99.90;;;;;;5087036;28;20103;-78
2022/06/02 06:16:35;;;;;;;6.43;1.23;;;12.30;99.90;;;;;;5069205;28;20482;-79
2022/06/02 06:19:06;;;;;;;2.33;1.40;;;12.50;99.90;;;;;;5087301;28;20028;-79
2022/06/02 06:21:54;;;;;;;2.83;1.50;;;12.50;99.90;;;;;;5086721;28;20025;-77
2022/06/02 06:24:35;;;;;;;3.90;1.52;;;12.50;99.90;;;;;;5072601;28;20035;-77
2022/06/02 06:27:19;;;;;;;1.92;1.20;;;12.40;99.90;;;;;;5069069;28;20042;-74
2022/06/02 06:29:56;;;;;;;1.85;1.13;;;12.40;99.90;;;;;;5071923;28;20458;-76
2022/06/02 06:32:50;;;;;;;2.47;1.73;;;12.40;99.90;;;;;;5077108;28;20090;-77
2022/06/02 06:35:44;;;;;;;1.63;1.33;;;12.60;99.90;;;;;;5069946;28;20044;-78
2022/06/02 06:38:30;;;;;;;1.23;1.13;;;12.60;99.90;;;;;;5071806;28;20028;-81
2022/06/02 06:41:30;;;;;;;2.13;1.23;;;12.60;99.90;;;;;;5072149;28;20033;-78
2022/06/02 06:44:17;;;;;;;2.38;1.38;;;12.80;99.90;;;;;;5075190;28;20029;-79
2022/06/02 06:47:02;;;;;;;2.38;1.80;;;13.00;99.90;;;;;;5076940;28;20028;-79
2022/06/02 06:49:53;;;;;;;4.10;1.67;;;13.10;99.90;;;;;;5077534;28;20554;-78
2022/06/02 06:52:57;;;;;;;1.50;1.30;;;13.20;99.90;;;;;;5073889;28;20032;-82
2022/06/02 06:55:47;;;;;;;1.90;1.42;;;13.30;99.90;;;;;;5079256;28;20519;-78
2022/06/02 06:58:41;;;;;;;3.08;1.88;;;13.50;99.90;;;;;;5071261;28;20050;-78
2022/06/02 07:01:14;;;;;;;1.95;1.30;;;13.70;99.90;;;;;;5080417;28;20024;-80
2022/06/02 07:04:05;;;;;;;3.65;1.90;;;13.80;99.90;;;;;;5071082;28;20108;-79
2022/06/02 07:06:46;;;;;;;2.72;1.63;;;14.20;99.90;;;;;;5074723;28;20086;-80
2022/06/02 07:09:27;;;;;;;2.53;1.70;;;14.60;99.90;;;;;;5072033;28;20101;-77
2022/06/02 07:14:51;;;;;;;3.20;2.08;;;14.90;99.90;;;;;;5071310;28;20109;-79
2022/06/02 07:17:43;;;;;;;1.83;1.40;;;14.90;99.90;;;;;;5078398;28;20050;-77
2022/06/02 07:20:13;;;;;;;1.98;0.98;;;14.80;99.90;;;;;;5069464;28;20111;-79
2022/06/02 07:23:02;;;;;;;1.55;1.45;;;14.50;99.90;;;;;;5080377;28;20036;-77
2022/06/02 07:25:51;;;;;;;2.17;1.33;;;14.50;99.90;;;;;;5074766;28;20122;-80
2022/06/02 07:28:59;;;;;;;1.52;1.42;;;14.30;99.90;;;;;;5083393;28;20024;-80
2022/06/02 07:31:39;;;;;;;2.13;1.80;;;14.10;99.90;;;;;;5089446;28;20475;-79
2022/06/02 07:34:32;;;;;;;5.43;2.15;;;14.00;99.90;;;;;;5080064;28;20054;-79
2022/06/02 07:37:18;;;;;;;3.22;1.38;;;13.80;99.90;;;;;;5069587;28;20032;-79
2022/06/02 07:40:19;;;;;;;1.67;1.50;;;14.00;99.90;;;;;;5068951;28;20048;-80
2022/06/02 07:43:13;;;;;;;3.17;2.00;;;14.20;99.90;;;;;;5069672;28;20035;-80
2022/06/02 07:45:55;;;;;;;1.52;1.42;;;14.40;99.90;;;;;;5073428;28;20165;-79
2022/06/02 07:48:41;;;;;;;1.73;1.23;;;14.40;99.90;;;;;;5074667;28;20031;-80
2022/06/02 07:51:26;;;;;;;1.67;1.20;;;14.50;99.90;;;;;;5061587;28;20100;-81
2022/06/02 07:54:11;;;;;;;1.67;1.10;;;14.50;99.90;;;;;;5076417;28;20039;-79
2022/06/02 07:57:00;;;;;;;1.20;1.10;;;14.50;99.90;;;;;;5073092;28;20414;-79
2022/06/02 07:59:40;;;;;;;1.77;1.17;;;14.60;99.90;;;;;;5077368;28;20048;-80
2022/06/02 08:02:27;;;;;;;1.33;1.10;;;14.70;99.90;;;;;;5081408;28;20027;-80
2022/06/02 08:05:30;;;;;;;0.80;0.80;;;14.80;99.90;;;;;;5072059;28;20029;-80
2022/06/02 08:08:04;;;;;;;2.88;1.50;;;14.90;99.90;;;;;;5074491;28;20024;-79
2022/06/02 08:11:09;;;;;;;10.30;2.10;;;14.90;99.90;;;;;;5086356;28;20153;-80
2022/06/02 08:14:12;;;;;;;0.82;0.82;;;15.10;99.90;;;;;;5072473;28;20063;-80
2022/06/02 08:17:01;;;;;;;0.82;0.60;;;15.20;93.70;;;;;;5071576;28;20027;-79
2022/06/02 08:20:08;;;;;;;0.75;0.70;;;15.00;90.30;;;;;;5074151;28;20028;-80
2022/06/02 08:22:44;;;;;;;7.43;1.02;;;14.80;91.80;;;;;;5036978;28;20040;-80
2022/06/02 08:25:21;;;;;;;0.93;0.80;;;14.80;92.00;;;;;;5073710;28;20037;-80
2022/06/02 08:28:12;;;;;;;1.08;0.98;;;14.80;93.70;;;;;;5076427;28;20143;-78
2022/06/02 08:31:08;;;;;;;1.10;0.85;;;14.70;93.30;;;;;;5077358;28;20086;-78
2022/06/02 08:33:54;;;;;;;1.17;0.77;;;14.90;94.00;;;;;;5078187;28;20048;-80
2022/06/02 08:36:29;;;;;;;1.30;1.17;;;15.00;94.80;;;;;;5072833;28;20494;-79
2022/06/02 08:39:27;;;;;;;0.85;0.40;;;15.20;93.10;;;;;;5075844;28;21561;-79
2022/06/02 08:42:25;;;;;;;6.63;1.10;;;15.20;91.50;;;;;;5072767;28;20025;-80
2022/06/02 08:45:24;;;;;;;0.60;0.55;;;15.40;92.90;;;;;;5082988;28;20045;-80
2022/06/02 08:48:32;;;;;;;0.70;0.70;;;15.70;88.80;;;;;;5071958;28;20064;-81
2022/06/02 08:51:25;;;;;;;1.17;0.98;;;16.00;89.20;;;;;;5081943;28;20260;-79
2022/06/02 08:54:26;;;;;;;1.38;0.75;;;16.10;86.20;;;;;;5070280;28;20024;-81
2022/06/02 08:57:15;;;;;;;0.95;0.95;;;15.70;86.00;;;;;;5078178;28;20020;-83
2022/06/02 09:00:12;;;;;;;1.25;0.90;;;15.50;86.70;;;;;;5082057;28;20108;-78
2022/06/02 09:03:09;;;;;;;0.98;0.80;;;15.60;89.40;;;;;;5088478;28;20038;-83
2022/06/02 09:06:03;;;;;;;4.57;1.73;;;15.60;85.30;;;;;;5092238;28;20020;-80
2022/06/02 09:08:43;;;;;;;2.67;1.17;;;15.70;83.40;;;;;;5084070;28;20024;-80
2022/06/02 09:11:25;;;;;;;0.73;0.73;;;15.80;81.80;;;;;;5085768;28;20257;-80
2022/06/02 09:13:50;;;;;;;0.88;0.70;;;16.00;80.60;;;;;;5060049;28;20032;-81
2022/06/02 09:16:20;;;;;;;1.50;1.08;;;16.10;77.40;;;;;;5086615;28;20027;-81
2022/06/02 09:19:02;;;;;;;0.85;0.80;;;16.30;76.00;;;;;;5077097;28;20029;-83
2022/06/02 09:21:45;;;;;;;0.93;0.52;;;16.60;76.90;;;;;;5071953;28;20016;-81
2022/06/02 09:24:31;;;;;;;0.82;0.55;;;16.80;75.60;;;;;;5075491;28;20119;-81
2022/06/02 09:27:26;;;;;;;0.80;0.75;;;16.90;73.80;;;;;;5089877;28;20035;-81
2022/06/02 09:30:08;;;;;;;1.30;0.52;;;16.70;74.20;;;;;;5069113;28;20093;-81
2022/06/02 09:33:00;;;;;;;0.50;0.50;;;16.30;76.10;;;;;;5091470;28;20024;-81
2022/06/02 09:35:37;;;;;;;0.85;0.45;;;16.10;78.60;;;;;;5088630;28;20062;-80
2022/06/02 09:38:47;;;;;;;0.75;0.70;;;16.00;81.70;;;;;;5091739;28;20024;-81
2022/06/02 09:41:36;;;;;;;0.50;0.50;;;15.90;82.90;;;;;;4991706;28;20038;-81
2022/06/02 09:44:16;;;;;;;0.73;0.55;;;16.30;80.60;;;;;;5067406;28;20037;-82
2022/06/02 09:47:10;;;;;;;1.00;0.70;;;16.90;78.50;;;;;;5070871;28;20032;-78
2022/06/02 09:49:44;;;;;;;0.68;0.50;;;17.30;74.20;;;;;;5070741;28;20032;-79
2022/06/02 09:52:25;;;;;;;0.77;0.63;;;17.40;75.30;;;;;;5074297;28;20035;-78
2022/06/02 09:55:11;;;;;;;0.65;0.55;;;17.10;74.70;;;;;;5087143;28;20081;-82
2022/06/02 09:57:56;;;;;;;0.60;0.60;;;16.60;76.00;;;;;;5070723;28;20024;-83
2022/06/02 10:00:39;;;;;;;0.52;0.47;;;16.70;75.80;;;;;;5079083;28;20133;-81
2022/06/02 10:03:26;;;;;;;0.70;0.45;;;17.20;76.70;;;;;;5078881;28;20074;-79
2022/06/02 10:06:16;;;;;;;1.13;0.77;;;17.60;74.20;;;;;;5074477;28;20154;-80
2022/06/02 10:09:06;;;;;;;0.55;0.50;;;17.90;66.80;;;;;;5080961;28;20028;-81
2022/06/02 10:12:54;;;;;;;1.13;0.90;;;17.90;67.70;;;;;;5097339;28;20048;-82
2022/06/02 10:15:16;;;;;;;0.60;0.60;;;17.80;65.90;;;;;;5070027;28;20040;-84
2022/06/02 10:18:06;;;;;;;0.82;0.63;;;17.70;70.90;;;;;;5083852;28;20016;-82
2022/06/02 10:20:56;;;;;;;0.38;0.38;;;18.20;64.30;;;;;;5070345;28;20398;-81
2022/06/02 10:23:55;;;;;;;0.43;0.40;;;18.20;65.70;;;;;;5070141;28;20119;-81
2022/06/02 10:26:31;;;;;;;0.45;0.45;;;18.00;63.90;;;;;;5078000;28;20479;-82
2022/06/02 10:29:29;;;;;;;0.60;0.47;;;17.90;65.40;;;;;;5077032;28;20033;-82
2022/06/02 10:32:38;;;;;;;1.00;0.63;;;18.00;70.10;;;;;;5089060;28;20047;-83
2022/06/02 10:35:42;;;;;;;0.50;0.50;;;18.10;67.60;;;;;;5088006;28;20024;-80
2022/06/02 10:38:40;;;;;;;0.40;0.40;;;18.20;64.30;;;;;;5069663;28;20040;-81
2022/06/02 10:41:12;;;;;;;2.25;0.43;;;18.50;64.80;;;;;;5078299;28;20045;-82
2022/06/02 10:44:06;;;;;;;1.27;0.75;;;19.00;62.90;;;;;;5090237;28;20249;-83
2022/06/02 10:46:54;;;;;;;0.88;0.65;;;19.20;57.50;;;;;;5079102;28;20047;-80
2022/06/02 10:49:30;;;;;;;1.45;0.50;;;19.00;57.30;;;;;;5068362;28;20032;-80
2022/06/02 10:52:55;;;;;;;0.60;0.50;;;18.50;59.40;;;;;;5078016;28;20028;-81
2022/06/02 10:55:35;;;;;;;0.57;0.57;;;18.20;60.20;;;;;;5026034;28;20029;-80
2022/06/02 10:58:00;;;;;;;0.40;0.40;;;18.00;59.10;;;;;;5028451;28;20396;-80
2022/06/02 11:00:47;;;;;;;0.30;0.30;;;18.10;59.80;;;;;;5051071;28;20036;-82
2022/06/02 11:03:19;;;;;;;0.55;0.55;;;18.60;60.80;;;;;;5068851;28;20024;-82
2022/06/02 11:06:22;;;;;;;4.60;0.65;;;19.10;59.40;;;;;;5069854;28;20028;-81
2022/06/02 11:09:39;;;;;;;0.43;0.43;;;19.20;58.60;;;;;;5085340;28;20525;-81
2022/06/02 11:12:32;;;;;;;0.90;0.70;;;19.90;57.70;;;;;;5015847;28;20037;-81
2022/06/02 11:15:22;;;;;;;0.28;0.28;;;19.70;54.70;;;;;;5069816;28;20035;-84
2022/06/02 11:18:26;;;;;;;0.25;0.25;;;19.10;57.40;;;;;;5071302;28;20027;-80
2022/06/02 11:21:36;;;;;;;0.30;0.30;;;18.90;57.30;;;;;;5074823;28;20154;-81
2022/06/02 11:24:36;;;;;;;1.90;0.60;;;18.40;59.30;;;;;;5089197;28;20028;-81
2022/06/02 11:27:28;;;;;;;0.25;0.25;;;18.50;60.00;;;;;;5089769;28;20066;-76
2022/06/02 11:30:21;;;;;;;0.45;0.40;;;19.10;58.60;;;;;;5088265;28;20162;-75
2022/06/02 11:33:22;;;;;;;0.50;0.50;;;19.80;53.50;;;;;;5070463;28;20039;-76
2022/06/02 11:36:10;;;;;;;0.50;0.50;;;20.00;54.60;;;;;;5067580;28;20028;-76
2022/06/02 11:38:58;;;;;;;0.85;0.40;;;20.00;54.40;;;;;;5067579;28;20047;-75
2022/06/02 11:42:01;;;;;;;0.45;0.45;;;19.50;54.50;;;;;;5068839;28;20395;-75
2022/06/02 11:44:37;;;;;;;0.65;0.38;;;19.10;55.30;;;;;;5068834;28;20036;-75
2022/06/02 11:47:47;;;;;;;0.20;0.20;;;18.50;56.80;;;;;;5068833;28;20067;-75
2022/06/02 11:50:48;;;;;;;0.38;0.38;;;19.00;57.70;;;;;;5077735;28;20042;-75
2022/06/02 11:53:35;;;;;;;0.40;0.40;;;20.10;54.10;;;;;;5076842;28;20103;-76
2022/06/02 11:56:34;;;;;;;1.15;0.90;;;19.60;54.60;;;;;;5068717;28;20036;-75
2022/06/02 11:59:35;;;;;;;0.35;0.35;;;19.20;55.70;;;;;;5078405;28;20020;-76
2022/06/02 12:02:29;;;;;;;0.40;0.33;;;19.20;56.40;;;;;;5067854;28;20804;-75
2022/06/02 12:05:17;;;;;;;0.30;0.25;;;19.00;56.40;;;;;;5068501;28;20780;-75
2022/06/02 12:08:01;;;;;;;0.90;0.35;;;19.20;55.10;;;;;;5050401;28;20056;-75
2022/06/02 12:10:37;;;;;;;0.63;0.60;;;20.00;55.30;;;;;;5072698;28;20065;-76
2022/06/02 12:13:26;;;;;;;0.55;0.40;;;21.00;50.20;;;;;;5068975;28;20104;-76
2022/06/02 12:16:12;;;;;;;1.38;0.52;;;21.30;49.70;;;;;;5074304;28;20040;-75
2022/06/02 12:19:07;;;;;;;2.05;1.17;;;21.50;48.40;;;;;;5077277;28;20036;-76
2022/06/02 12:22:09;;;;;;;1.90;0.82;;;21.80;48.50;;;;;;5072776;28;20032;-75
2022/06/02 12:25:04;;;;;;;2.75;0.63;;;22.40;48.20;;;;;;5069156;28;20025;-76
2022/06/02 12:28:11;;;;;;;2.08;0.80;;;23.10;47.50;;;;;;5068944;28;20028;-76
2022/06/02 12:30:44;;;;;;;0.30;0.30;;;23.60;45.00;;;;;;5068115;28;20028;-76
2022/06/02 12:33:37;;;;;;;0.57;0.57;;;23.20;45.00;;;;;;5068881;28;20035;-76
2022/06/02 12:36:30;;;;;;;1.38;0.40;;;24.10;46.60;;;;;;5082781;28;20500;-76
2022/06/02 12:39:23;;;;;;;0.50;0.40;;;23.70;43.10;;;;;;5091827;28;20036;-75
2022/06/02 12:42:34;;;;;;;1.25;0.30;;;24.10;43.30;;;;;;5082899;28;21023;-76
2022/06/02 12:45:14;;;;;;;0.30;0.30;;;24.30;44.10;;;;;;5071571;28;20498;-75
2022/06/02 12:48:11;;;;;;;0.38;0.38;;;23.60;42.90;;;;;;5071369;28;20036;-76
2022/06/02 12:50:52;;;;;;;0.85;0.85;;;22.20;44.10;;;;;;5079677;28;20028;-76
2022/06/02 12:53:33;;;;;;;2.03;0.47;;;22.30;43.80;;;;;;5081874;28;20056;-75
2022/06/02 12:56:26;;;;;;;0.40;0.40;;;23.80;45.10;;;;;;5086470;28;20470;-76
2022/06/02 12:59:19;;;;;;;0.45;0.40;;;26.00;41.20;;;;;;5072151;28;20028;-75
2022/06/02 13:02:09;;;;;;;1.63;0.70;;;24.90;40.00;;;;;;5094592;28;20059;-75
2022/06/02 13:05:22;;;;;;;0.40;0.40;;;23.00;42.60;;;;;;5077560;28;20545;-76
2022/06/02 13:08:15;;;;;;;0.40;0.40;;;24.50;42.70;;;;;;4991334;28;20576;-76
2022/06/02 13:10:56;;;;;;;0.50;0.50;;;26.10;39.70;;;;;;5082641;28;20065;-75
2022/06/02 13:13:56;;;;;;;0.30;0.30;;;25.90;40.40;;;;;;5075566;28;20040;-74
2022/06/02 13:16:48;;;;;;;0.95;0.38;;;26.30;38.70;;;;;;5080590;28;20493;-75
2022/06/02 13:19:31;;;;;;;0.40;0.40;;;25.60;40.00;;;;;;5098975;28;20032;-75
2022/06/02 13:22:11;;;;;;;0.32;0.32;;;25.40;39.60;;;;;;5087942;28;20121;-75
2022/06/02 13:25:01;;;;;;;0.40;0.40;;;25.10;42.00;;;;;;5091989;28;20159;-75
2022/06/02 13:27:53;;;;;;;0.38;0.38;;;26.20;40.00;;;;;;5074819;28;20025;-74
2022/06/02 13:30:43;;;;;;;0.52;0.40;;;27.90;38.90;;;;;;5081259;28;20184;-75
2022/06/02 13:33:39;;;;;;;0.93;0.57;;;29.10;34.00;;;;;;5073470;28;20074;-74
2022/06/02 13:36:29;;;;;;;1.95;0.60;;;27.50;35.80;;;;;;5072085;28;20035;-75
2022/06/02 13:39:14;;;;;;;0.50;0.50;;;25.90;39.30;;;;;;5047890;28;20436;-75
2022/06/02 13:42:09;;;;;;;0.45;0.45;;;24.70;42.00;;;;;;5080450;28;20034;-75
2022/06/02 13:44:56;;;;;;;0.38;0.38;;;23.00;44.80;;;;;;5081294;28;20028;-75
2022/06/02 13:47:52;;;;;;;0.30;0.30;;;23.00;47.00;;;;;;5072869;28;20490;-76
2022/06/02 13:50:31;;;;;;;0.40;0.40;;;23.10;45.30;;;;;;5078743;28;20032;-77
2022/06/02 13:53:24;;;;;;;0.75;0.60;;;22.90;46.70;;;;;;5061526;28;20043;-76
2022/06/02 13:59:27;;;;;;;0.50;0.50;;;21.80;50.50;;;;;;5074151;28;20079;-80
2022/06/02 14:02:23;;;;;;;0.45;0.45;;;21.80;50.50;;;;;;5076316;28;20047;-74
2022/06/02 14:05:11;;;;;;;1.33;0.57;;;22.80;48.20;;;;;;5079918;28;20055;-87
2022/06/02 14:08:04;;;;;;;0.63;0.50;;;23.70;45.60;;;;;;5073608;28;20028;-76
2022/06/02 14:10:50;;;;;;;0.60;0.60;;;23.90;44.30;;;;;;5078299;28;20055;-79
2022/06/02 14:13:36;;;;;;;2.13;0.35;;;24.60;42.50;;;;;;5071383;28;20549;-77
2022/06/02 14:16:15;;;;;;;0.63;0.60;;;23.80;44.60;;;;;;5074126;28;20090;-79
2022/06/02 14:19:17;;;;;;;0.40;0.40;;;25.90;41.30;;;;;;5076678;28;20052;-82
2022/06/02 14:21:58;;;;;;;0.95;0.70;;;25.00;43.10;;;;;;5077705;28;20172;-81
2022/06/02 14:24:46;;;;;;;0.40;0.40;;;25.90;43.60;;;;;;5080339;28;20035;-80
2022/06/02 14:27:41;;;;;;;0.40;0.40;;;25.40;41.70;;;;;;5077908;28;20028;-81
2022/06/02 14:30:19;;;;;;;0.40;0.40;;;26.80;40.80;;;;;;5084799;28;20036;-85
2022/06/02 14:33:23;;;;;;;0.40;0.40;;;28.00;39.40;;;;;;5072151;28;20077;-83
2022/06/02 14:36:06;;;;;;;0.63;0.57;;;29.60;36.80;;;;;;5057969;28;20390;-91
2022/06/02 14:38:59;;;;;;;0.43;0.43;;;27.10;38.10;;;;;;5080576;28;20359;-85
2022/06/02 14:41:26;;;;;;;0.45;0.45;;;26.40;40.80;;;;;;5068857;28;20029;-85
2022/06/02 14:44:15;;;;;;;0.47;0.47;;;27.90;39.70;;;;;;5076986;28;20028;-78
2022/06/02 14:47:03;;;;;;;0.50;0.50;;;30.70;36.80;;;;;;5073546;28;20039;-80
2022/06/02 14:49:46;;;;;;;0.45;0.45;;;33.40;33.50;;;;;;5073292;28;20024;-82
2022/06/02 14:52:41;;;;;;;0.60;0.60;;;33.50;31.90;;;;;;5070400;28;20024;-83